Terminal Aerodrome Forecast
Issued by NWS

Home | Current Version | Previous Version | Text Only | Print | Product List | Glossary On
Versions: 1 2 3 4 5 6 7 8 9 10 11 12 13 14 15 16 17 18
626
FTUS43 KLSX 131725
TAFCPS
TAF
KCPS 131725Z 1318/1418 02005KT P6SM SCT120 BKN250
     FM131900 05004KT P6SM OVC080
     FM140300 12008KT P6SM OVC050
     FM141000 13012KT 4SM -SN SCT015 OVC035
     FM141200 13014KT 2SM -SN SCT009 OVC015=

USA.gov is the U.S. government's official web portal to all federal, state and local government web resources and services.